OMSJ/SHJ METAR and TAF weather

Enter ICAO airport designator
Station Type Date Time Source
OMSJ METAR 2019/06/27 09:00 UTC NOAA

OMSJ 270900Z 30014KT 4000 DU NSC 39/25 Q0999


Station Type Date Time Source
OMSJ Decoded METAR 2019/06/27 09:00 UTC NOAA

Sharjah International Airport, United Arab Emirates (OMSJ) 25-20N 055-31E 33M
Jun 27, 2019 - 05:00 AM EDT / 2019.06.27 0900 UTC
Wind: from the WNW (300 degrees) at 16 MPH (14 KT):0
Visibility: 2 mile(s):0
Weather: widespread dust
Temperature: 102 F (39 C)
Heat index: 118.8 F (48.2 C):1
Dew Point: 77 F (25 C)
Relative Humidity: 45%
Pressure (altimeter): 29.50 in. Hg (0999 hPa)
ob: OMSJ 270900Z 30014KT 4000 DU NSC 39/25 Q0999
cycle: 9

Station Type Date Time Source
OMSJ TAF 2019/06/27 06:03 UTC NOAA

TAF OMSJ 270458Z 2706/2812 19015KT 7000 NSC PROB30 2706/2712 3000 DU
BECMG 2708/2710 29014KT
BECMG 2716/2718 09005KT
BECMG 2802/2804 18014KT
BECMG 2807/2809 28015KT

Example: see airport list